sensor_id;sensor_type;location;lat;lon;timestamp;temperature;humidity
582;DHT22;277;50.074;8.436;2023-12-20T00:01:16;5.50;99.90
582;DHT22;277;50.074;8.436;2023-12-20T00:03:44;5.60;99.90
582;DHT22;277;50.074;8.436;2023-12-20T00:06:11;5.60;99.90
582;DHT22;277;50.074;8.436;2023-12-20T00:08:39;5.70;99.90
582;DHT22;277;50.074;8.436;2023-12-20T00:11:07;5.70;99.90
582;DHT22;277;50.074;8.436;2023-12-20T00:13:35;5.70;99.90
582;DHT22;277;50.074;8.436;2023-12-20T00:16:04;5.60;99.90
582;DHT22;277;50.074;8.436;2023-12-20T00:18:32;5.60;99.90
582;DHT22;277;50.074;8.436;2023-12-20T00:21:00;5.60;99.90
582;DHT22;277;50.074;8.436;2023-12-20T00:23:27;5.60;99.90
582;DHT22;277;50.074;8.436;2023-12-20T00:25:55;5.50;99.90
582;DHT22;277;50.074;8.436;2023-12-20T00:28:23;5.50;99.90
582;DHT22;277;50.074;8.436;2023-12-20T00:30:52;5.50;99.90
582;DHT22;277;50.074;8.436;2023-12-20T00:33:21;5.40;99.90
582;DHT22;277;50.074;8.436;2023-12-20T00:35:49;5.50;99.90
582;DHT22;277;50.074;8.436;2023-12-20T00:38:16;5.50;99.90
582;DHT22;277;50.074;8.436;2023-12-20T00:40:44;5.40;99.90
582;DHT22;277;50.074;8.436;2023-12-20T00:43:12;5.50;99.90
582;DHT22;277;50.074;8.436;2023-12-20T00:45:40;5.50;99.90
582;DHT22;277;50.074;8.436;2023-12-20T00:48:08;5.50;99.90
582;DHT22;277;50.074;8.436;2023-12-20T00:50:37;5.50;99.90
582;DHT22;277;50.074;8.436;2023-12-20T00:53:05;5.50;99.90
582;DHT22;277;50.074;8.436;2023-12-20T00:55:33;5.50;99.90
582;DHT22;277;50.074;8.436;2023-12-20T00:58:01;5.50;99.90
582;DHT22;277;50.074;8.436;2023-12-20T01:00:28;5.40;99.90
582;DHT22;277;50.074;8.436;2023-12-20T01:02:56;5.50;99.90
582;DHT22;277;50.074;8.436;2023-12-20T01:05:24;5.50;99.90
582;DHT22;277;50.074;8.436;2023-12-20T01:07:53;5.50;99.90
582;DHT22;277;50.074;8.436;2023-12-20T01:10:21;5.50;99.90
582;DHT22;277;50.074;8.436;2023-12-20T01:12:49;5.50;99.90
582;DHT22;277;50.074;8.436;2023-12-20T01:15:17;5.40;99.90
582;DHT22;277;50.074;8.436;2023-12-20T01:17:44;5.50;99.90
582;DHT22;277;50.074;8.436;2023-12-20T01:20:12;5.60;99.90
582;DHT22;277;50.074;8.436;2023-12-20T01:22:40;5.60;99.90
582;DHT22;277;50.074;8.436;2023-12-20T01:25:10;5.50;99.90
582;DHT22;277;50.074;8.436;2023-12-20T01:27:38;5.40;99.90
582;DHT22;277;50.074;8.436;2023-12-20T01:30:06;5.60;99.90
582;DHT22;277;50.074;8.436;2023-12-20T01:32:34;5.70;99.90
582;DHT22;277;50.074;8.436;2023-12-20T01:35:03;5.90;99.90
582;DHT22;277;50.074;8.436;2023-12-20T01:37:31;5.90;99.90
582;DHT22;277;50.074;8.436;2023-12-20T01:39:58;5.90;99.90
582;DHT22;277;50.074;8.436;2023-12-20T01:42:28;6.00;99.90
582;DHT22;277;50.074;8.436;2023-12-20T01:44:56;5.90;99.90
582;DHT22;277;50.074;8.436;2023-12-20T01:47:23;5.90;99.90
582;DHT22;277;50.074;8.436;2023-12-20T01:49:53;5.90;99.90
582;DHT22;277;50.074;8.436;2023-12-20T01:52:23;6.00;99.90
582;DHT22;277;50.074;8.436;2023-12-20T01:54:53;5.90;99.90
582;DHT22;277;50.074;8.436;2023-12-20T01:57:23;5.80;99.90
582;DHT22;277;50.074;8.436;2023-12-20T01:59:52;5.80;99.90
582;DHT22;277;50.074;8.436;2023-12-20T02:02:20;5.80;99.90
582;DHT22;277;50.074;8.436;2023-12-20T02:04:48;5.80;99.90
582;DHT22;277;50.074;8.436;2023-12-20T02:07:18;5.90;99.90
582;DHT22;277;50.074;8.436;2023-12-20T02:09:46;5.70;99.90
582;DHT22;277;50.074;8.436;2023-12-20T02:12:14;5.60;99.90
582;DHT22;277;50.074;8.436;2023-12-20T02:14:41;5.60;99.90
582;DHT22;277;50.074;8.436;2023-12-20T02:17:11;5.70;99.90
582;DHT22;277;50.074;8.436;2023-12-20T02:19:39;5.70;99.90
582;DHT22;277;50.074;8.436;2023-12-20T02:22:09;5.60;99.90
582;DHT22;277;50.074;8.436;2023-12-20T02:24:37;5.40;99.90
582;DHT22;277;50.074;8.436;2023-12-20T02:27:05;5.40;99.90
582;DHT22;277;50.074;8.436;2023-12-20T02:29:33;5.50;99.90
582;DHT22;277;50.074;8.436;2023-12-20T02:32:01;5.60;99.90
582;DHT22;277;50.074;8.436;2023-12-20T02:34:29;5.50;99.90
582;DHT22;277;50.074;8.436;2023-12-20T02:36:57;5.40;99.90
582;DHT22;277;50.074;8.436;2023-12-20T02:39:26;5.60;99.90
582;DHT22;277;50.074;8.436;2023-12-20T02:41:54;5.50;99.90
582;DHT22;277;50.074;8.436;2023-12-20T02:44:22;5.50;99.90
582;DHT22;277;50.074;8.436;2023-12-20T02:46:49;5.50;99.90
582;DHT22;277;50.074;8.436;2023-12-20T02:49:17;5.40;99.90
582;DHT22;277;50.074;8.436;2023-12-20T02:51:45;5.40;99.90
582;DHT22;277;50.074;8.436;2023-12-20T02:54:13;5.40;99.90
582;DHT22;277;50.074;8.436;2023-12-20T02:56:43;5.30;99.90
582;DHT22;277;50.074;8.436;2023-12-20T02:59:10;5.50;99.90
582;DHT22;277;50.074;8.436;2023-12-20T03:01:41;5.60;99.90
582;DHT22;277;50.074;8.436;2023-12-20T03:04:09;5.50;99.90
582;DHT22;277;50.074;8.436;2023-12-20T03:06:37;5.50;99.90
582;DHT22;277;50.074;8.436;2023-12-20T03:09:05;5.40;99.90
582;DHT22;277;50.074;8.436;2023-12-20T03:11:32;5.30;99.90
582;DHT22;277;50.074;8.436;2023-12-20T03:14:01;5.40;99.90
582;DHT22;277;50.074;8.436;2023-12-20T03:16:29;5.30;99.90
582;DHT22;277;50.074;8.436;2023-12-20T03:18:59;5.50;99.90
582;DHT22;277;50.074;8.436;2023-12-20T03:21:26;5.60;99.90
582;DHT22;277;50.074;8.436;2023-12-20T03:23:54;5.60;99.90
582;DHT22;277;50.074;8.436;2023-12-20T03:26:22;5.50;99.90
582;DHT22;277;50.074;8.436;2023-12-20T03:28:50;5.50;99.90
582;DHT22;277;50.074;8.436;2023-12-20T03:31:19;5.60;99.90
582;DHT22;277;50.074;8.436;2023-12-20T03:33:48;5.80;99.90
582;DHT22;277;50.074;8.436;2023-12-20T03:36:17;5.90;99.90
582;DHT22;277;50.074;8.436;2023-12-20T03:38:45;5.70;99.90
582;DHT22;277;50.074;8.436;2023-12-20T03:41:13;5.70;99.90
582;DHT22;277;50.074;8.436;2023-12-20T03:43:40;5.60;99.90
582;DHT22;277;50.074;8.436;2023-12-20T03:46:08;5.60;99.90
582;DHT22;277;50.074;8.436;2023-12-20T03:48:37;5.60;99.90
582;DHT22;277;50.074;8.436;2023-12-20T03:51:05;5.70;99.90
582;DHT22;277;50.074;8.436;2023-12-20T03:53:33;5.80;99.90
582;DHT22;277;50.074;8.436;2023-12-20T03:56:01;6.00;99.90
582;DHT22;277;50.074;8.436;2023-12-20T03:58:28;6.10;99.90
582;DHT22;277;50.074;8.436;2023-12-20T04:00:56;6.00;99.90
582;DHT22;277;50.074;8.436;2023-12-20T04:03:24;5.90;99.90
582;DHT22;277;50.074;8.436;2023-12-20T04:05:53;6.10;99.90
582;DHT22;277;50.074;8.436;2023-12-20T04:08:21;6.10;99.90
582;DHT22;277;50.074;8.436;2023-12-20T04:10:49;6.00;99.90
582;DHT22;277;50.074;8.436;2023-12-20T04:13:16;6.10;99.90
582;DHT22;277;50.074;8.436;2023-12-20T04:15:45;6.20;99.90
582;DHT22;277;50.074;8.436;2023-12-20T04:18:12;6.30;99.90
582;DHT22;277;50.074;8.436;2023-12-20T04:20:40;6.30;99.90
582;DHT22;277;50.074;8.436;2023-12-20T04:23:09;6.30;99.90
582;DHT22;277;50.074;8.436;2023-12-20T04:25:37;6.30;99.90
582;DHT22;277;50.074;8.436;2023-12-20T04:28:05;6.30;99.90
582;DHT22;277;50.074;8.436;2023-12-20T04:30:33;6.20;99.90
582;DHT22;277;50.074;8.436;2023-12-20T04:33:01;6.10;99.90
582;DHT22;277;50.074;8.436;2023-12-20T04:35:29;6.00;99.90
582;DHT22;277;50.074;8.436;2023-12-20T04:37:57;6.10;99.90
582;DHT22;277;50.074;8.436;2023-12-20T04:40:26;6.20;99.90
582;DHT22;277;50.074;8.436;2023-12-20T04:42:54;6.20;99.90
582;DHT22;277;50.074;8.436;2023-12-20T04:45:22;6.30;99.90
582;DHT22;277;50.074;8.436;2023-12-20T04:47:51;6.40;99.90
582;DHT22;277;50.074;8.436;2023-12-20T04:50:19;6.40;99.90
582;DHT22;277;50.074;8.436;2023-12-20T04:52:48;6.30;99.90
582;DHT22;277;50.074;8.436;2023-12-20T04:55:16;6.20;99.90
582;DHT22;277;50.074;8.436;2023-12-20T04:57:45;6.20;99.90
582;DHT22;277;50.074;8.436;2023-12-20T05:00:13;6.20;99.90
582;DHT22;277;50.074;8.436;2023-12-20T05:02:42;6.10;99.90
582;DHT22;277;50.074;8.436;2023-12-20T05:05:10;5.90;99.90
582;DHT22;277;50.074;8.436;2023-12-20T05:07:37;5.90;99.90
582;DHT22;277;50.074;8.436;2023-12-20T05:10:06;5.80;99.90
582;DHT22;277;50.074;8.436;2023-12-20T05:12:35;5.80;99.90
582;DHT22;277;50.074;8.436;2023-12-20T05:15:05;5.60;99.90
582;DHT22;277;50.074;8.436;2023-12-20T05:17:33;5.60;99.90
582;DHT22;277;50.074;8.436;2023-12-20T05:20:01;5.60;99.90
582;DHT22;277;50.074;8.436;2023-12-20T05:22:29;5.60;99.90
582;DHT22;277;50.074;8.436;2023-12-20T05:24:57;5.60;99.90
582;DHT22;277;50.074;8.436;2023-12-20T05:27:25;5.50;99.90
582;DHT22;277;50.074;8.436;2023-12-20T05:29:52;5.50;99.90
582;DHT22;277;50.074;8.436;2023-12-20T05:32:25;5.50;99.90
582;DHT22;277;50.074;8.436;2023-12-20T05:34:53;5.40;99.90
582;DHT22;277;50.074;8.436;2023-12-20T05:37:21;5.40;99.90
582;DHT22;277;50.074;8.436;2023-12-20T05:39:49;5.40;99.90
582;DHT22;277;50.074;8.436;2023-12-20T05:42:17;5.40;99.90
582;DHT22;277;50.074;8.436;2023-12-20T05:44:45;5.40;99.90
582;DHT22;277;50.074;8.436;2023-12-20T05:47:12;5.30;99.90
582;DHT22;277;50.074;8.436;2023-12-20T05:49:42;5.20;99.90
582;DHT22;277;50.074;8.436;2023-12-20T05:52:10;5.20;99.90
582;DHT22;277;50.074;8.436;2023-12-20T05:54:38;5.10;99.90
582;DHT22;277;50.074;8.436;2023-12-20T05:57:06;5.10;99.90
582;DHT22;277;50.074;8.436;2023-12-20T05:59:34;5.00;99.90
582;DHT22;277;50.074;8.436;2023-12-20T06:02:02;5.00;99.90
582;DHT22;277;50.074;8.436;2023-12-20T06:04:30;4.90;99.90
582;DHT22;277;50.074;8.436;2023-12-20T06:06:59;4.90;99.90
582;DHT22;277;50.074;8.436;2023-12-20T06:09:27;4.80;99.90
582;DHT22;277;50.074;8.436;2023-12-20T06:11:57;4.80;99.90
582;DHT22;277;50.074;8.436;2023-12-20T06:14:25;4.80;99.90
582;DHT22;277;50.074;8.436;2023-12-20T06:16:53;4.80;99.90
582;DHT22;277;50.074;8.436;2023-12-20T06:19:21;4.80;99.90
582;DHT22;277;50.074;8.436;2023-12-20T06:21:48;4.80;99.90
582;DHT22;277;50.074;8.436;2023-12-20T06:24:18;4.80;99.90
582;DHT22;277;50.074;8.436;2023-12-20T06:26:45;4.80;99.90
582;DHT22;277;50.074;8.436;2023-12-20T06:29:13;4.70;99.90
582;DHT22;277;50.074;8.436;2023-12-20T06:31:41;4.70;99.90
582;DHT22;277;50.074;8.436;2023-12-20T06:34:09;4.80;99.90
582;DHT22;277;50.074;8.436;2023-12-20T06:36:37;4.70;99.90
582;DHT22;277;50.074;8.436;2023-12-20T06:39:04;4.70;99.90
582;DHT22;277;50.074;8.436;2023-12-20T06:41:34;4.70;99.90
582;DHT22;277;50.074;8.436;2023-12-20T06:44:01;4.60;99.90
582;DHT22;277;50.074;8.436;2023-12-20T06:46:29;4.60;99.90
582;DHT22;277;50.074;8.436;2023-12-20T06:48:57;4.50;99.90
582;DHT22;277;50.074;8.436;2023-12-20T06:51:25;4.40;99.90
582;DHT22;277;50.074;8.436;2023-12-20T06:53:53;4.30;99.90
582;DHT22;277;50.074;8.436;2023-12-20T06:56:21;4.20;99.90
582;DHT22;277;50.074;8.436;2023-12-20T06:58:50;4.10;99.90
582;DHT22;277;50.074;8.436;2023-12-20T07:01:18;4.10;99.90
582;DHT22;277;50.074;8.436;2023-12-20T07:03:46;4.10;99.90
582;DHT22;277;50.074;8.436;2023-12-20T07:06:14;4.10;99.90
582;DHT22;277;50.074;8.436;2023-12-20T07:08:44;4.10;99.90
582;DHT22;277;50.074;8.436;2023-12-20T07:11:12;4.10;99.90
582;DHT22;277;50.074;8.436;2023-12-20T07:13:40;4.10;99.90
582;DHT22;277;50.074;8.436;2023-12-20T07:16:09;4.20;99.90
582;DHT22;277;50.074;8.436;2023-12-20T07:18:37;4.20;99.90
582;DHT22;277;50.074;8.436;2023-12-20T07:21:05;4.20;99.90
582;DHT22;277;50.074;8.436;2023-12-20T07:23:34;4.20;99.90
582;DHT22;277;50.074;8.436;2023-12-20T07:26:02;4.20;99.90
582;DHT22;277;50.074;8.436;2023-12-20T07:28:31;4.20;99.90
582;DHT22;277;50.074;8.436;2023-12-20T07:30:59;4.20;99.90
582;DHT22;277;50.074;8.436;2023-12-20T07:33:28;4.20;99.90
582;DHT22;277;50.074;8.436;2023-12-20T07:36:05;4.20;99.90
582;DHT22;277;50.074;8.436;2023-12-20T07:38:33;4.20;99.90
582;DHT22;277;50.074;8.436;2023-12-20T07:41:01;4.20;99.90
582;DHT22;277;50.074;8.436;2023-12-20T07:43:29;4.20;99.90
582;DHT22;277;50.074;8.436;2023-12-20T07:45:56;4.20;99.90
582;DHT22;277;50.074;8.436;2023-12-20T07:48:24;4.20;99.90
582;DHT22;277;50.074;8.436;2023-12-20T07:50:54;4.30;99.90
582;DHT22;277;50.074;8.436;2023-12-20T07:53:22;4.40;99.90
582;DHT22;277;50.074;8.436;2023-12-20T07:55:50;4.40;99.90
582;DHT22;277;50.074;8.436;2023-12-20T07:58:19;4.40;99.90
582;DHT22;277;50.074;8.436;2023-12-20T08:00:57;4.50;99.90
582;DHT22;277;50.074;8.436;2023-12-20T08:03:25;4.50;99.90
582;DHT22;277;50.074;8.436;2023-12-20T08:05:54;4.70;99.90
582;DHT22;277;50.074;8.436;2023-12-20T08:08:23;4.80;99.90
582;DHT22;277;50.074;8.436;2023-12-20T08:10:51;5.10;99.90
582;DHT22;277;50.074;8.436;2023-12-20T08:13:19;5.10;99.90
582;DHT22;277;50.074;8.436;2023-12-20T08:15:51;5.10;99.90
582;DHT22;277;50.074;8.436;2023-12-20T08:18:19;5.10;99.90
582;DHT22;277;50.074;8.436;2023-12-20T08:20:47;5.00;99.90
582;DHT22;277;50.074;8.436;2023-12-20T08:23:17;5.00;99.90
582;DHT22;277;50.074;8.436;2023-12-20T08:25:44;5.00;99.90
582;DHT22;277;50.074;8.436;2023-12-20T08:28:12;5.20;99.90
582;DHT22;277;50.074;8.436;2023-12-20T08:30:40;5.30;99.90
582;DHT22;277;50.074;8.436;2023-12-20T08:33:09;5.30;99.90
582;DHT22;277;50.074;8.436;2023-12-20T08:35:40;5.40;99.90
582;DHT22;277;50.074;8.436;2023-12-20T08:38:07;5.40;99.90
582;DHT22;277;50.074;8.436;2023-12-20T08:40:38;5.50;99.90
582;DHT22;277;50.074;8.436;2023-12-20T08:43:06;5.60;99.90
582;DHT22;277;50.074;8.436;2023-12-20T08:45:34;5.60;99.90
582;DHT22;277;50.074;8.436;2023-12-20T08:48:02;5.50;99.90
582;DHT22;277;50.074;8.436;2023-12-20T08:50:35;5.50;99.90
582;DHT22;277;50.074;8.436;2023-12-20T08:53:03;5.50;99.90
582;DHT22;277;50.074;8.436;2023-12-20T08:55:31;5.40;99.90
582;DHT22;277;50.074;8.436;2023-12-20T08:58:01;5.40;99.90
582;DHT22;277;50.074;8.436;2023-12-20T09:00:29;5.50;99.90
582;DHT22;277;50.074;8.436;2023-12-20T09:02:57;5.50;99.90
582;DHT22;277;50.074;8.436;2023-12-20T09:05:26;5.50;99.90
582;DHT22;277;50.074;8.436;2023-12-20T09:07:54;5.60;99.90
582;DHT22;277;50.074;8.436;2023-12-20T09:10:22;5.60;99.90
582;DHT22;277;50.074;8.436;2023-12-20T09:12:50;5.60;99.90
582;DHT22;277;50.074;8.436;2023-12-20T09:15:22;5.60;99.90
582;DHT22;277;50.074;8.436;2023-12-20T09:17:50;5.70;99.90
582;DHT22;277;50.074;8.436;2023-12-20T09:20:18;5.70;99.90
582;DHT22;277;50.074;8.436;2023-12-20T09:22:47;5.70;99.90
582;DHT22;277;50.074;8.436;2023-12-20T09:25:15;5.70;99.90
582;DHT22;277;50.074;8.436;2023-12-20T09:27:44;5.80;99.90
582;DHT22;277;50.074;8.436;2023-12-20T09:30:12;6.00;99.90
582;DHT22;277;50.074;8.436;2023-12-20T09:32:55;6.00;99.90
582;DHT22;277;50.074;8.436;2023-12-20T09:35:23;6.10;99.90
582;DHT22;277;50.074;8.436;2023-12-20T09:37:53;6.10;99.90
582;DHT22;277;50.074;8.436;2023-12-20T09:40:22;6.30;99.90
582;DHT22;277;50.074;8.436;2023-12-20T09:42:56;6.30;99.90
582;DHT22;277;50.074;8.436;2023-12-20T09:45:25;6.40;99.90
582;DHT22;277;50.074;8.436;2023-12-20T09:47:55;6.60;99.90
582;DHT22;277;50.074;8.436;2023-12-20T09:50:23;6.70;99.90
582;DHT22;277;50.074;8.436;2023-12-20T09:52:53;7.00;99.90
582;DHT22;277;50.074;8.436;2023-12-20T09:55:25;7.40;99.90
582;DHT22;277;50.074;8.436;2023-12-20T09:57:53;7.60;99.90
582;DHT22;277;50.074;8.436;2023-12-20T10:00:21;7.90;99.90
582;DHT22;277;50.074;8.436;2023-12-20T10:02:51;8.30;99.90
582;DHT22;277;50.074;8.436;2023-12-20T10:05:27;8.40;99.90
582;DHT22;277;50.074;8.436;2023-12-20T10:07:55;8.40;99.90
582;DHT22;277;50.074;8.436;2023-12-20T10:10:24;8.40;99.90
582;DHT22;277;50.074;8.436;2023-12-20T10:13:09;8.60;99.90
582;DHT22;277;50.074;8.436;2023-12-20T10:15:38;8.80;99.90
582;DHT22;277;50.074;8.436;2023-12-20T10:18:08;8.90;99.90
582;DHT22;277;50.074;8.436;2023-12-20T10:20:38;9.00;99.90
582;DHT22;277;50.074;8.436;2023-12-20T10:23:08;9.00;99.90
582;DHT22;277;50.074;8.436;2023-12-20T10:25:36;9.00;99.90
582;DHT22;277;50.074;8.436;2023-12-20T10:28:11;8.90;99.90
582;DHT22;277;50.074;8.436;2023-12-20T10:30:40;8.90;99.90
582;DHT22;277;50.074;8.436;2023-12-20T10:33:09;8.90;99.90
582;DHT22;277;50.074;8.436;2023-12-20T10:35:40;8.80;99.90
582;DHT22;277;50.074;8.436;2023-12-20T10:38:14;9.10;99.90
582;DHT22;277;50.074;8.436;2023-12-20T10:40:42;9.10;99.90
582;DHT22;277;50.074;8.436;2023-12-20T10:43:12;9.10;99.90
582;DHT22;277;50.074;8.436;2023-12-20T10:45:41;9.30;99.90
582;DHT22;277;50.074;8.436;2023-12-20T10:48:10;9.30;99.90
582;DHT22;277;50.074;8.436;2023-12-20T10:50:41;9.30;99.90
582;DHT22;277;50.074;8.436;2023-12-20T10:53:09;9.30;99.90
582;DHT22;277;50.074;8.436;2023-12-20T10:55:39;9.20;99.90
582;DHT22;277;50.074;8.436;2023-12-20T10:58:08;9.30;99.90
582;DHT22;277;50.074;8.436;2023-12-20T11:00:38;9.40;99.90
582;DHT22;277;50.074;8.436;2023-12-20T11:03:09;9.40;99.90
582;DHT22;277;50.074;8.436;2023-12-20T11:05:42;9.40;99.90
582;DHT22;277;50.074;8.436;2023-12-20T11:08:22;9.40;99.90
582;DHT22;277;50.074;8.436;2023-12-20T11:10:59;9.40;99.90
582;DHT22;277;50.074;8.436;2023-12-20T11:13:34;9.40;99.90
582;DHT22;277;50.074;8.436;2023-12-20T11:16:04;9.40;99.90
582;DHT22;277;50.074;8.436;2023-12-20T11:18:34;9.60;99.90
582;DHT22;277;50.074;8.436;2023-12-20T11:21:04;9.70;99.90
582;DHT22;277;50.074;8.436;2023-12-20T11:23:33;10.00;99.90
582;DHT22;277;50.074;8.436;2023-12-20T11:26:02;10.00;99.90
582;DHT22;277;50.074;8.436;2023-12-20T11:28:30;10.10;99.90
582;DHT22;277;50.074;8.436;2023-12-20T11:31:01;10.20;99.90
582;DHT22;277;50.074;8.436;2023-12-20T11:33:31;10.30;99.90
582;DHT22;277;50.074;8.436;2023-12-20T11:36:00;10.20;99.90
582;DHT22;277;50.074;8.436;2023-12-20T11:38:37;10.30;99.90
582;DHT22;277;50.074;8.436;2023-12-20T11:41:06;10.10;99.90
582;DHT22;277;50.074;8.436;2023-12-20T11:43:36;10.10;99.90
582;DHT22;277;50.074;8.436;2023-12-20T11:46:05;9.60;99.90
582;DHT22;277;50.074;8.436;2023-12-20T11:48:35;9.20;99.90
582;DHT22;277;50.074;8.436;2023-12-20T11:51:09;8.90;99.90
582;DHT22;277;50.074;8.436;2023-12-20T11:53:38;8.80;99.90
582;DHT22;277;50.074;8.436;2023-12-20T11:56:06;8.60;99.90
582;DHT22;277;50.074;8.436;2023-12-20T11:58:34;8.50;99.90
582;DHT22;277;50.074;8.436;2023-12-20T12:01:03;8.30;99.90
582;DHT22;277;50.074;8.436;2023-12-20T12:03:36;8.10;99.90
582;DHT22;277;50.074;8.436;2023-12-20T12:06:04;8.00;99.90
582;DHT22;277;50.074;8.436;2023-12-20T12:08:32;8.00;99.90
582;DHT22;277;50.074;8.436;2023-12-20T12:11:02;8.30;99.90
582;DHT22;277;50.074;8.436;2023-12-20T12:13:30;8.70;99.90
582;DHT22;277;50.074;8.436;2023-12-20T12:15:59;9.00;99.90
582;DHT22;277;50.074;8.436;2023-12-20T12:18:27;9.10;99.90
582;DHT22;277;50.074;8.436;2023-12-20T12:21:00;9.00;99.90
582;DHT22;277;50.074;8.436;2023-12-20T12:23:35;9.00;99.90
582;DHT22;277;50.074;8.436;2023-12-20T12:26:05;8.90;99.90
582;DHT22;277;50.074;8.436;2023-12-20T12:28:34;8.90;99.90
582;DHT22;277;50.074;8.436;2023-12-20T12:31:03;8.80;99.90
582;DHT22;277;50.074;8.436;2023-12-20T12:33:31;8.80;99.90
582;DHT22;277;50.074;8.436;2023-12-20T12:35:59;8.90;99.90
582;DHT22;277;50.074;8.436;2023-12-20T12:38:28;8.80;99.90
582;DHT22;277;50.074;8.436;2023-12-20T12:40:56;8.90;99.90
582;DHT22;277;50.074;8.436;2023-12-20T12:43:25;8.80;99.90
582;DHT22;277;50.074;8.436;2023-12-20T12:45:54;8.70;99.90
582;DHT22;277;50.074;8.436;2023-12-20T12:48:22;8.60;99.90
582;DHT22;277;50.074;8.436;2023-12-20T12:50:50;8.40;99.90
582;DHT22;277;50.074;8.436;2023-12-20T12:53:19;8.30;99.90
582;DHT22;277;50.074;8.436;2023-12-20T12:55:47;8.30;99.90
582;DHT22;277;50.074;8.436;2023-12-20T12:58:15;8.30;99.90
582;DHT22;277;50.074;8.436;2023-12-20T13:00:45;8.30;99.90
582;DHT22;277;50.074;8.436;2023-12-20T13:03:12;8.30;99.90
582;DHT22;277;50.074;8.436;2023-12-20T13:05:40;8.30;99.90
582;DHT22;277;50.074;8.436;2023-12-20T13:08:11;8.30;99.90
582;DHT22;277;50.074;8.436;2023-12-20T13:10:40;8.40;99.90
582;DHT22;277;50.074;8.436;2023-12-20T13:13:08;8.30;99.90
582;DHT22;277;50.074;8.436;2023-12-20T13:15:36;8.20;99.90
582;DHT22;277;50.074;8.436;2023-12-20T13:18:06;8.20;99.90
582;DHT22;277;50.074;8.436;2023-12-20T13:20:34;8.20;99.90
582;DHT22;277;50.074;8.436;2023-12-20T13:23:02;8.20;99.90
582;DHT22;277;50.074;8.436;2023-12-20T13:25:30;8.30;99.90
582;DHT22;277;50.074;8.436;2023-12-20T13:27:58;8.30;99.90
582;DHT22;277;50.074;8.436;2023-12-20T13:30:26;8.30;99.90
582;DHT22;277;50.074;8.436;2023-12-20T13:32:54;8.10;99.90
582;DHT22;277;50.074;8.436;2023-12-20T13:35:23;8.10;99.90
582;DHT22;277;50.074;8.436;2023-12-20T13:37:51;8.10;99.90
582;DHT22;277;50.074;8.436;2023-12-20T13:40:19;8.10;99.90
582;DHT22;277;50.074;8.436;2023-12-20T13:42:47;8.10;99.90
582;DHT22;277;50.074;8.436;2023-12-20T13:45:16;8.10;99.90
582;DHT22;277;50.074;8.436;2023-12-20T13:47:43;8.00;99.90
582;DHT22;277;50.074;8.436;2023-12-20T13:50:12;8.00;99.90
582;DHT22;277;50.074;8.436;2023-12-20T13:52:41;8.10;99.90
582;DHT22;277;50.074;8.436;2023-12-20T13:55:09;8.10;99.90
582;DHT22;277;50.074;8.436;2023-12-20T13:57:37;8.10;99.90
582;DHT22;277;50.074;8.436;2023-12-20T14:00:21;8.00;99.90
582;DHT22;277;50.074;8.436;2023-12-20T14:02:49;7.90;99.90
582;DHT22;277;50.074;8.436;2023-12-20T14:05:17;7.90;99.90
582;DHT22;277;50.074;8.436;2023-12-20T14:07:47;7.90;99.90
582;DHT22;277;50.074;8.436;2023-12-20T14:10:16;7.80;99.90
582;DHT22;277;50.074;8.436;2023-12-20T14:12:44;7.80;99.90
582;DHT22;277;50.074;8.436;2023-12-20T14:15:12;7.80;99.90
582;DHT22;277;50.074;8.436;2023-12-20T14:17:40;7.80;99.90
582;DHT22;277;50.074;8.436;2023-12-20T14:20:10;7.70;99.90
582;DHT22;277;50.074;8.436;2023-12-20T14:22:39;7.70;99.90
582;DHT22;277;50.074;8.436;2023-12-20T14:25:12;7.70;99.90
582;DHT22;277;50.074;8.436;2023-12-20T14:27:41;7.60;99.90
582;DHT22;277;50.074;8.436;2023-12-20T14:30:12;7.60;99.90
582;DHT22;277;50.074;8.436;2023-12-20T14:32:41;7.60;99.90
582;DHT22;277;50.074;8.436;2023-12-20T14:35:09;7.60;99.90
582;DHT22;277;50.074;8.436;2023-12-20T14:37:38;7.60;99.90
582;DHT22;277;50.074;8.436;2023-12-20T14:40:07;7.60;99.90
582;DHT22;277;50.074;8.436;2023-12-20T14:42:42;7.60;99.90
582;DHT22;277;50.074;8.436;2023-12-20T14:45:11;7.60;99.90
582;DHT22;277;50.074;8.436;2023-12-20T14:47:40;7.60;99.90
582;DHT22;277;50.074;8.436;2023-12-20T14:50:08;7.50;99.90
582;DHT22;277;50.074;8.436;2023-12-20T14:52:37;7.50;99.90
582;DHT22;277;50.074;8.436;2023-12-20T14:55:05;7.50;99.90
582;DHT22;277;50.074;8.436;2023-12-20T14:57:33;7.40;99.90
582;DHT22;277;50.074;8.436;2023-12-20T15:00:03;7.40;99.90
582;DHT22;277;50.074;8.436;2023-12-20T15:02:31;7.40;99.90
582;DHT22;277;50.074;8.436;2023-12-20T15:05:00;7.30;99.90
582;DHT22;277;50.074;8.436;2023-12-20T15:07:28;7.30;99.90
582;DHT22;277;50.074;8.436;2023-12-20T15:09:56;7.30;99.90
582;DHT22;277;50.074;8.436;2023-12-20T15:12:24;7.20;99.90
582;DHT22;277;50.074;8.436;2023-12-20T15:14:51;7.30;99.90
582;DHT22;277;50.074;8.436;2023-12-20T15:17:21;7.30;99.90
582;DHT22;277;50.074;8.436;2023-12-20T15:19:49;7.20;99.90
582;DHT22;277;50.074;8.436;2023-12-20T15:22:17;7.20;99.90
582;DHT22;277;50.074;8.436;2023-12-20T15:24:45;7.20;99.90
582;DHT22;277;50.074;8.436;2023-12-20T15:27:13;7.10;99.90
582;DHT22;277;50.074;8.436;2023-12-20T15:29:42;7.20;99.90
582;DHT22;277;50.074;8.436;2023-12-20T15:32:10;7.20;99.90
582;DHT22;277;50.074;8.436;2023-12-20T15:34:39;7.20;99.90
582;DHT22;277;50.074;8.436;2023-12-20T15:37:07;7.20;99.90
582;DHT22;277;50.074;8.436;2023-12-20T15:39:35;7.20;99.90
582;DHT22;277;50.074;8.436;2023-12-20T15:42:04;7.20;99.90
582;DHT22;277;50.074;8.436;2023-12-20T15:44:31;7.20;99.90
582;DHT22;277;50.074;8.436;2023-12-20T15:46:59;7.10;99.90
582;DHT22;277;50.074;8.436;2023-12-20T15:49:27;7.10;99.90
582;DHT22;277;50.074;8.436;2023-12-20T15:51:57;7.10;99.90
582;DHT22;277;50.074;8.436;2023-12-20T15:54:25;7.10;99.90
582;DHT22;277;50.074;8.436;2023-12-20T15:56:53;7.10;99.90
582;DHT22;277;50.074;8.436;2023-12-20T15:59:20;7.00;99.90
582;DHT22;277;50.074;8.436;2023-12-20T16:01:48;7.00;99.90
582;DHT22;277;50.074;8.436;2023-12-20T16:04:20;7.00;99.90
582;DHT22;277;50.074;8.436;2023-12-20T16:06:48;7.00;99.90
582;DHT22;277;50.074;8.436;2023-12-20T16:09:18;7.00;99.90
582;DHT22;277;50.074;8.436;2023-12-20T16:11:45;7.00;99.90
582;DHT22;277;50.074;8.436;2023-12-20T16:14:13;6.90;99.90
582;DHT22;277;50.074;8.436;2023-12-20T16:16:44;6.90;99.90
582;DHT22;277;50.074;8.436;2023-12-20T16:19:13;6.90;99.90
582;DHT22;277;50.074;8.436;2023-12-20T16:21:41;6.90;99.90
582;DHT22;277;50.074;8.436;2023-12-20T16:24:09;6.90;99.90
582;DHT22;277;50.074;8.436;2023-12-20T16:26:38;6.90;99.90
582;DHT22;277;50.074;8.436;2023-12-20T16:29:07;6.90;99.90
582;DHT22;277;50.074;8.436;2023-12-20T16:31:35;6.80;99.90
582;DHT22;277;50.074;8.436;2023-12-20T16:34:03;6.90;99.90
582;DHT22;277;50.074;8.436;2023-12-20T16:36:49;6.90;99.90
582;DHT22;277;50.074;8.436;2023-12-20T16:39:18;6.90;99.90
582;DHT22;277;50.074;8.436;2023-12-20T16:41:51;6.80;99.90
582;DHT22;277;50.074;8.436;2023-12-20T16:44:19;6.90;99.90
582;DHT22;277;50.074;8.436;2023-12-20T16:46:47;6.90;99.90
582;DHT22;277;50.074;8.436;2023-12-20T16:49:15;6.90;99.90
582;DHT22;277;50.074;8.436;2023-12-20T16:51:43;6.90;99.90
582;DHT22;277;50.074;8.436;2023-12-20T16:54:11;6.80;99.90
582;DHT22;277;50.074;8.436;2023-12-20T16:56:39;6.80;99.90
582;DHT22;277;50.074;8.436;2023-12-20T16:59:09;6.80;99.90
582;DHT22;277;50.074;8.436;2023-12-20T17:01:37;6.80;99.90